createdAt,value
2022-08-17T00:01:51.694Z,22.75
2022-08-17T00:04:30.328Z,24.13
2022-08-17T00:06:58.506Z,24.23
2022-08-17T00:09:33.134Z,22.08
2022-08-17T00:12:40.576Z,22.00
2022-08-17T00:14:52.566Z,21.70
2022-08-17T00:17:21.156Z,21.85
2022-08-17T00:20:06.408Z,23.02
2022-08-17T00:22:37.638Z,21.17
2022-08-17T00:25:13.195Z,21.35
2022-08-17T00:27:53.355Z,20.40
2022-08-17T00:30:23.917Z,20.30
2022-08-17T00:33:16.082Z,19.25
2022-08-17T00:35:51.647Z,20.85
2022-08-17T00:38:20.146Z,20.80
2022-08-17T00:41:03.990Z,22.50
2022-08-17T00:43:34.263Z,20.55
2022-08-17T00:46:08.160Z,22.92
2022-08-17T00:48:36.676Z,22.40
2022-08-17T00:51:09.948Z,19.40
2022-08-17T00:54:09.411Z,20.88
2022-08-17T00:56:46.089Z,21.55
2022-08-17T00:59:19.078Z,21.73
2022-08-17T01:01:53.968Z,22.80
2022-08-17T01:04:31.990Z,23.33
2022-08-17T01:07:02.407Z,22.88
2022-08-17T01:09:31.514Z,25.20
2022-08-17T01:11:59.758Z,23.80
2022-08-17T01:14:30.987Z,25.90
2022-08-17T01:17:00.598Z,24.98
2022-08-17T01:19:32.348Z,25.05
2022-08-17T01:22:12.762Z,24.08
2022-08-17T01:25:06.435Z,24.42
2022-08-17T01:27:36.543Z,25.05
2022-08-17T01:30:56.825Z,25.10
2022-08-17T01:33:09.944Z,25.60
2022-08-17T01:35:41.492Z,25.83
2022-08-17T01:38:09.760Z,24.85
2022-08-17T01:40:47.305Z,26.42
2022-08-17T01:43:34.938Z,26.17
2022-08-17T01:46:04.421Z,25.45
2022-08-17T01:48:34.315Z,27.30
2022-08-17T01:51:07.763Z,27.58
2022-08-17T01:53:47.783Z,25.65
2022-08-17T01:56:18.486Z,26.42
2022-08-17T01:58:53.568Z,26.42
2022-08-17T02:01:26.048Z,26.75
2022-08-17T02:04:00.487Z,27.02
2022-08-17T02:06:52.879Z,26.13
2022-08-17T02:09:25.574Z,27.48
2022-08-17T02:12:37.270Z,29.13
2022-08-17T02:14:52.215Z,27.30
2022-08-17T02:17:20.244Z,27.23
2022-08-17T02:19:48.930Z,29.13
2022-08-17T02:22:18.388Z,27.77
2022-08-17T02:25:00.288Z,26.70
2022-08-17T02:27:30.265Z,26.02
2022-08-17T02:29:58.323Z,28.25
2022-08-17T02:32:29.634Z,27.08
2022-08-17T02:35:06.849Z,27.70
2022-08-17T02:37:37.555Z,27.08
2022-08-17T02:40:10.868Z,27.83
2022-08-17T02:42:41.694Z,27.13
2022-08-17T02:45:22.838Z,26.52
2022-08-17T02:47:50.877Z,27.10
2022-08-17T02:50:29.443Z,25.20
2022-08-17T02:52:58.777Z,26.13
2022-08-17T02:55:34.723Z,26.30
2022-08-17T02:58:06.796Z,26.10
2022-08-17T03:00:42.826Z,25.60
2022-08-17T03:03:15.274Z,26.60
2022-08-17T03:05:46.215Z,24.52
2022-08-17T03:08:14.692Z,25.55
2022-08-17T03:10:47.857Z,29.48
2022-08-17T03:13:18.106Z,28.92
2022-08-17T03:15:56.053Z,25.52
2022-08-17T03:18:26.329Z,25.35
2022-08-17T03:21:04.484Z,25.95
2022-08-17T03:23:32.867Z,24.45
2022-08-17T03:26:12.288Z,26.00
2022-08-17T03:28:44.067Z,25.20
2022-08-17T03:31:19.559Z,23.25
2022-08-17T03:33:50.215Z,24.95
2022-08-17T03:36:24.947Z,25.80
2022-08-17T03:39:02.835Z,25.05
2022-08-17T03:41:33.932Z,23.45
2022-08-17T03:44:08.479Z,24.42
2022-08-17T03:47:06.566Z,21.45
2022-08-17T03:49:56.094Z,23.35
2022-08-17T03:52:52.221Z,22.77
2022-08-17T03:55:42.778Z,25.08
2022-08-17T03:58:16.369Z,22.63
2022-08-17T04:00:57.647Z,22.77
2022-08-17T04:03:32.608Z,20.60
2022-08-17T04:06:13.596Z,22.50
2022-08-17T04:11:11.632Z,23.08
2022-08-17T04:13:41.015Z,22.20
2022-08-17T04:16:09.757Z,21.73
2022-08-17T04:18:43.671Z,22.35
2022-08-17T04:21:15.578Z,22.48
2022-08-17T04:23:50.873Z,23.38
2022-08-17T04:26:52.560Z,22.23
2022-08-17T04:29:09.225Z,23.50
2022-08-17T04:31:42.433Z,22.63
2022-08-17T04:34:12.165Z,21.73
2022-08-17T04:36:50.319Z,23.93
2022-08-17T04:39:19.589Z,23.88
2022-08-17T04:42:06.352Z,23.25
2022-08-17T04:44:37.348Z,22.55
2022-08-17T04:47:08.274Z,23.77
2022-08-17T04:49:42.379Z,23.95
2022-08-17T04:52:29.744Z,24.90
2022-08-17T04:55:07.267Z,23.05
2022-08-17T04:57:45.034Z,22.15
2022-08-17T05:00:13.856Z,22.38
2022-08-17T05:02:50.988Z,21.05
2022-08-17T05:05:40.399Z,22.13
2022-08-17T05:08:11.523Z,23.77
2022-08-17T05:10:45.251Z,22.17
2022-08-17T05:13:34.999Z,23.25
2022-08-17T05:16:04.612Z,20.60
2022-08-17T05:18:33.064Z,22.40
2022-08-17T05:21:07.698Z,21.77
2022-08-17T05:23:42.470Z,21.15
2022-08-17T05:26:26.698Z,22.55
2022-08-17T05:29:03.057Z,23.30
2022-08-17T05:31:36.490Z,25.20
2022-08-17T05:34:07.535Z,24.83
2022-08-17T05:36:44.084Z,25.40
2022-08-17T05:39:17.773Z,24.25
2022-08-17T05:41:50.916Z,25.52
2022-08-17T05:44:21.462Z,24.67
2022-08-17T05:46:54.391Z,26.70
2022-08-17T05:49:29.359Z,26.17
2022-08-17T05:52:02.251Z,26.67
2022-08-17T05:54:42.194Z,28.13
2022-08-17T05:57:22.709Z,26.30
2022-08-17T06:00:21.029Z,26.90
2022-08-17T06:03:19.776Z,26.95
2022-08-17T06:05:56.820Z,25.48
2022-08-17T06:09:06.052Z,27.52
2022-08-17T06:12:14.223Z,26.98
2022-08-17T06:15:04.259Z,27.80
2022-08-17T06:17:34.931Z,25.77
2022-08-17T06:20:19.105Z,27.95
2022-08-17T06:23:04.485Z,28.45
2022-08-17T06:25:42.803Z,25.77
2022-08-17T06:28:27.090Z,29.30
2022-08-17T06:31:06.408Z,27.92
2022-08-17T06:33:37.608Z,27.77
2022-08-17T06:36:17.641Z,28.08
2022-08-17T06:43:00.874Z,31.45
2022-08-17T06:45:19.896Z,43.90
2022-08-17T06:48:07.470Z,50.85
2022-08-17T06:50:48.447Z,53.90
2022-08-17T06:53:45.223Z,58.15
2022-08-17T06:56:53.694Z,55.67
2022-08-17T06:59:54.626Z,57.58
2022-08-17T07:02:52.211Z,58.60
2022-08-17T07:05:23.998Z,56.55
2022-08-17T07:08:04.775Z,58.60
2022-08-17T07:10:47.805Z,55.88
2022-08-17T07:13:41.442Z,56.05
2022-08-17T07:16:36.788Z,55.17
2022-08-17T07:19:10.786Z,55.40
2022-08-17T07:22:07.219Z,55.33
2022-08-17T07:24:41.597Z,53.90
2022-08-17T07:27:17.892Z,54.03
2022-08-17T07:29:53.826Z,53.10
2022-08-17T07:32:31.958Z,53.95
2022-08-17T07:35:10.703Z,51.05
2022-08-17T07:37:58.737Z,52.95
2022-08-17T07:41:03.662Z,50.75
2022-08-17T07:43:43.987Z,48.17
2022-08-17T07:46:38.412Z,50.55
2022-08-17T07:49:09.554Z,49.90
2022-08-17T07:51:56.697Z,50.97
2022-08-17T07:54:36.965Z,51.05
2022-08-17T07:57:16.862Z,49.78
2022-08-17T08:00:17.283Z,54.60
2022-08-17T08:03:01.725Z,50.10
2022-08-17T08:05:49.904Z,49.88
2022-08-17T08:08:36.518Z,54.28
2022-08-17T08:11:28.501Z,53.22
2022-08-17T08:14:16.753Z,53.00
2022-08-17T08:16:59.994Z,53.92
2022-08-17T08:19:29.995Z,56.55
2022-08-17T08:22:47.372Z,53.03
2022-08-17T08:25:28.700Z,54.45
2022-08-17T08:28:16.657Z,56.40
2022-08-17T08:30:54.389Z,54.55
2022-08-17T08:33:42.534Z,51.90
2022-08-17T08:37:12.478Z,49.83
2022-08-17T08:39:48.702Z,50.47
2022-08-17T08:42:52.127Z,48.95
2022-08-17T08:45:32.192Z,48.47
2022-08-17T08:48:56.982Z,48.33
2022-08-17T08:51:57.843Z,46.30
2022-08-17T08:55:01.465Z,47.13
2022-08-17T08:57:39.586Z,44.75
2022-08-17T09:00:20.773Z,47.63
2022-08-17T09:03:42.737Z,46.83
2022-08-17T09:07:01.853Z,43.75
2022-08-17T09:09:59.137Z,44.70
2022-08-17T09:13:09.966Z,41.63
2022-08-17T09:15:45.283Z,41.38
2022-08-17T09:19:00.458Z,39.58
2022-08-17T09:22:17.625Z,42.15
2022-08-17T09:25:16.881Z,38.70
2022-08-17T09:28:17.226Z,36.72
2022-08-17T09:30:51.742Z,35.38
2022-08-17T09:33:26.241Z,36.35
2022-08-17T09:36:10.199Z,36.70
2022-08-17T09:38:59.032Z,36.42
2022-08-17T09:41:33.546Z,39.50
2022-08-17T09:44:31.903Z,37.67
2022-08-17T09:47:20.022Z,35.95
2022-08-17T09:49:53.272Z,36.58
2022-08-17T09:52:27.811Z,37.92
2022-08-17T09:55:01.178Z,37.15
2022-08-17T09:58:05.004Z,36.63
2022-08-17T10:00:40.393Z,34.83
2022-08-17T10:03:34.435Z,36.83
2022-08-17T10:06:23.371Z,33.78
2022-08-17T10:09:18.599Z,32.95
2022-08-17T10:12:13.222Z,33.40
2022-08-17T10:15:12.797Z,33.35
2022-08-17T10:18:08.380Z,30.88
2022-08-17T10:21:24.859Z,31.63
2022-08-17T10:24:39.972Z,24.55
2022-08-17T10:27:42.381Z,25.08
2022-08-17T10:30:17.926Z,25.95
2022-08-17T10:33:22.512Z,25.30
2022-08-17T10:36:08.739Z,25.70
2022-08-17T10:39:03.416Z,25.13
2022-08-17T10:41:45.015Z,25.35
2022-08-17T10:44:39.420Z,24.90
2022-08-17T10:47:13.858Z,23.83
2022-08-17T10:50:00.520Z,22.92
2022-08-17T10:52:31.415Z,23.13
2022-08-17T10:55:01.590Z,23.83
2022-08-17T10:57:44.921Z,23.55
2022-08-17T11:00:27.401Z,24.55
2022-08-17T11:02:57.593Z,26.83
2022-08-17T11:06:04.927Z,25.20
2022-08-17T11:08:57.574Z,25.75
2022-08-17T11:11:37.805Z,25.67
2022-08-17T11:14:53.450Z,24.13
2022-08-17T11:17:41.546Z,22.33
2022-08-17T11:20:28.231Z,22.75
2022-08-17T11:23:33.650Z,21.70
2022-08-17T11:26:20.963Z,20.65
2022-08-17T11:29:01.362Z,18.67
2022-08-17T11:31:38.607Z,18.00
2022-08-17T11:34:26.979Z,17.33
2022-08-17T11:37:26.295Z,16.83
2022-08-17T11:40:14.861Z,18.15
2022-08-17T11:43:01.542Z,17.30
2022-08-17T11:45:41.011Z,20.05
2022-08-17T11:48:52.335Z,20.08
2022-08-17T11:51:38.858Z,18.38
2022-08-17T11:54:34.433Z,18.38
2022-08-17T11:57:27.187Z,16.88
2022-08-17T12:00:19.273Z,17.23
2022-08-17T12:03:25.964Z,17.27
2022-08-17T12:06:05.856Z,17.45
2022-08-17T12:08:43.542Z,19.00
2022-08-17T12:11:56.305Z,17.05
2022-08-17T12:14:20.231Z,19.67
2022-08-17T12:17:02.644Z,18.00
2022-08-17T12:19:34.183Z,19.45
2022-08-17T12:22:32.836Z,19.50
2022-08-17T12:25:15.027Z,18.75
2022-08-17T12:28:05.990Z,20.88
2022-08-17T12:30:36.234Z,19.73
2022-08-17T12:33:04.358Z,20.25
2022-08-17T12:35:41.771Z,20.35
2022-08-17T12:38:32.124Z,19.50
2022-08-17T12:41:25.564Z,20.42
2022-08-17T12:44:02.621Z,19.00
2022-08-17T12:46:35.503Z,17.45
2022-08-17T12:49:16.725Z,17.48
2022-08-17T12:51:46.938Z,20.38
2022-08-17T12:56:54.065Z,17.73
2022-08-17T12:59:29.702Z,14.90
2022-08-17T13:02:01.929Z,17.20
2022-08-17T13:04:33.345Z,15.57
2022-08-17T13:07:05.446Z,16.90
2022-08-17T13:09:45.671Z,18.60
2022-08-17T13:14:49.799Z,17.17
2022-08-17T13:17:31.167Z,16.45
2022-08-17T13:19:59.603Z,16.77
2022-08-17T13:22:35.564Z,16.13
2022-08-17T13:25:07.548Z,16.20
2022-08-17T13:27:35.985Z,15.13
2022-08-17T13:30:19.825Z,15.00
2022-08-17T13:32:48.355Z,16.40
2022-08-17T13:35:51.925Z,16.13
2022-08-17T13:38:49.784Z,17.17
2022-08-17T13:41:33.763Z,19.45
2022-08-17T13:44:04.327Z,18.67
2022-08-17T13:46:33.607Z,19.05
2022-08-17T13:49:09.797Z,18.80
2022-08-17T13:51:47.553Z,18.25
2022-08-17T13:54:18.915Z,17.27
2022-08-17T13:57:00.388Z,17.50
2022-08-17T13:59:55.230Z,14.75
2022-08-17T14:02:28.528Z,13.77
2022-08-17T14:04:58.480Z,12.80
2022-08-17T14:07:31.648Z,11.98
2022-08-17T14:10:05.911Z,11.18
2022-08-17T14:12:35.164Z,12.48
2022-08-17T14:15:03.528Z,11.10
2022-08-17T14:17:46.003Z,10.00
2022-08-17T14:20:24.897Z,10.82
2022-08-17T14:22:55.942Z,9.85
2022-08-17T14:25:27.011Z,9.23
2022-08-17T14:27:55.699Z,9.45
2022-08-17T14:30:26.962Z,9.25
2022-08-17T14:33:00.264Z,8.75
2022-08-17T14:35:29.561Z,8.05
2022-08-17T14:37:58.784Z,7.95
2022-08-17T14:40:27.227Z,8.02
2022-08-17T14:42:57.904Z,7.77
2022-08-17T14:45:29.979Z,7.20
2022-08-17T14:48:05.815Z,6.97
2022-08-17T14:50:36.116Z,7.15
2022-08-17T14:53:15.336Z,6.95
2022-08-17T14:55:47.348Z,7.03
2022-08-17T14:58:16.470Z,6.90
2022-08-17T15:00:44.601Z,6.93
2022-08-17T15:03:13.684Z,9.23
2022-08-17T15:05:46.069Z,8.55
2022-08-17T15:08:13.959Z,8.38
2022-08-17T15:10:41.730Z,9.55
2022-08-17T15:13:20.130Z,7.85
2022-08-17T15:15:49.020Z,11.18
2022-08-17T15:18:17.886Z,11.25
2022-08-17T15:20:48.789Z,11.98
2022-08-17T15:23:20.692Z,13.30
2022-08-17T15:25:52.769Z,14.73
2022-08-17T15:28:23.089Z,13.73
2022-08-17T15:33:29.316Z,13.52
2022-08-17T15:36:10.247Z,13.77
2022-08-17T15:38:40.707Z,11.00
2022-08-17T15:41:15.500Z,9.60
2022-08-17T15:43:45.143Z,10.90
2022-08-17T15:46:17.656Z,11.13
2022-08-17T15:48:48.173Z,10.43
2022-08-17T15:51:26.522Z,11.38
2022-08-17T15:53:57.885Z,11.95
2022-08-17T15:56:29.181Z,12.55
2022-08-17T15:58:57.986Z,10.68
2022-08-17T16:02:33.667Z,11.05
2022-08-17T16:04:30.427Z,9.02
2022-08-17T16:06:59.971Z,8.23
2022-08-17T16:09:28.005Z,7.28
2022-08-17T16:11:56.464Z,7.57
2022-08-17T16:14:32.521Z,7.65
2022-08-17T16:17:38.867Z,6.75
2022-08-17T16:19:58.258Z,6.20
2022-08-17T16:22:38.820Z,6.50
2022-08-17T16:25:14.594Z,5.63
2022-08-17T16:27:43.701Z,5.68
2022-08-17T16:30:17.556Z,5.78
2022-08-17T16:32:47.490Z,6.15
2022-08-17T16:35:20.120Z,6.57
2022-08-17T16:37:54.498Z,6.93
2022-08-17T16:40:26.218Z,6.70
2022-08-17T16:42:56.048Z,7.80
2022-08-17T16:45:28.538Z,7.90
2022-08-17T16:47:59.189Z,7.25
2022-08-17T16:50:27.001Z,6.72
2022-08-17T16:53:06.677Z,8.02
2022-08-17T16:55:38.033Z,8.40
2022-08-17T16:58:23.416Z,7.43
2022-08-17T17:00:51.219Z,6.53
2022-08-17T17:03:22.243Z,7.70
2022-08-17T17:06:13.520Z,7.32
2022-08-17T17:08:55.706Z,7.38
2022-08-17T17:11:41.437Z,8.25
2022-08-17T17:14:18.326Z,8.18
2022-08-17T17:17:06.152Z,8.98
2022-08-17T17:20:04.055Z,9.02
2022-08-17T17:22:36.970Z,9.43
2022-08-17T17:25:30.535Z,9.13
2022-08-17T17:28:26.415Z,10.00
2022-08-17T17:31:16.289Z,10.75
2022-08-17T17:33:55.837Z,10.30
2022-08-17T17:36:35.443Z,10.20
2022-08-17T17:39:23.119Z,9.70
2022-08-17T17:41:57.854Z,10.80
2022-08-17T17:44:30.734Z,11.32
2022-08-17T17:47:01.464Z,11.70
2022-08-17T17:49:35.685Z,10.70
2022-08-17T17:52:13.387Z,10.57
2022-08-17T17:54:53.997Z,10.75
2022-08-17T17:58:22.564Z,12.63
2022-08-17T18:01:27.834Z,10.90
2022-08-17T18:04:11.178Z,11.73
2022-08-17T18:07:09.883Z,10.40
2022-08-17T18:09:51.939Z,11.13
2022-08-17T18:12:48.677Z,11.30
2022-08-17T18:15:51.066Z,11.70
2022-08-17T18:18:18.793Z,12.00
2022-08-17T18:21:00.276Z,12.65
2022-08-17T18:23:31.347Z,14.20
2022-08-17T18:26:04.287Z,13.10
2022-08-17T18:28:43.572Z,13.52
2022-08-17T18:31:25.166Z,12.73
2022-08-17T18:34:46.022Z,13.50
2022-08-17T18:37:37.755Z,13.18
2022-08-17T18:40:20.583Z,14.27
2022-08-17T18:43:44.341Z,14.27
2022-08-17T18:46:33.263Z,13.55
2022-08-17T18:49:04.810Z,16.67
2022-08-17T18:51:42.880Z,14.80
2022-08-17T18:54:23.546Z,15.70
2022-08-17T18:56:59.934Z,17.52
2022-08-17T18:59:48.413Z,17.08
2022-08-17T19:02:43.840Z,16.48
2022-08-17T19:05:29.017Z,16.23
2022-08-17T19:08:33.973Z,16.48
2022-08-17T19:11:05.222Z,18.25
2022-08-17T19:13:57.140Z,16.65
2022-08-17T19:16:27.817Z,14.98
2022-08-17T19:19:22.367Z,15.63
2022-08-17T19:21:59.178Z,15.55
2022-08-17T19:24:30.706Z,15.20
2022-08-17T19:27:13.000Z,14.77
2022-08-17T19:30:06.965Z,14.77
2022-08-17T19:32:41.002Z,13.43
2022-08-17T19:35:17.358Z,13.57
2022-08-17T19:37:45.551Z,13.75
2022-08-17T19:40:51.222Z,13.05
2022-08-17T19:43:40.701Z,13.32
2022-08-17T19:46:17.061Z,12.35
2022-08-17T19:48:54.078Z,13.73
2022-08-17T19:51:36.175Z,14.30
2022-08-17T19:54:35.104Z,14.55
2022-08-17T19:57:27.637Z,13.68
2022-08-17T20:00:12.131Z,13.75
2022-08-17T20:03:05.953Z,14.20
2022-08-17T20:08:58.124Z,14.10
2022-08-17T20:11:42.364Z,11.95
2022-08-17T20:14:15.182Z,11.95
2022-08-17T20:16:46.503Z,12.07
2022-08-17T20:19:42.048Z,13.73
2022-08-17T20:22:24.583Z,14.20
2022-08-17T20:25:30.130Z,15.20
2022-08-17T20:28:19.550Z,14.98
2022-08-17T20:30:50.128Z,14.15
2022-08-17T20:33:34.589Z,14.10
2022-08-17T20:36:11.254Z,12.82
2022-08-17T20:38:51.372Z,15.75
2022-08-17T20:41:28.519Z,15.13
2022-08-17T20:43:59.271Z,14.45
2022-08-17T20:46:51.745Z,14.40
2022-08-17T20:49:31.292Z,14.50
2022-08-17T20:52:07.782Z,16.55
2022-08-17T20:54:57.363Z,16.13
2022-08-17T20:57:34.738Z,16.47
2022-08-17T21:00:34.922Z,17.33
2022-08-17T21:03:24.580Z,18.00
2022-08-17T21:06:15.349Z,17.23
2022-08-17T21:09:29.956Z,16.55
2022-08-17T21:12:04.620Z,17.27
2022-08-17T21:14:58.215Z,16.98
2022-08-17T21:18:04.631Z,15.88
2022-08-17T21:21:00.192Z,17.10
2022-08-17T21:23:59.559Z,16.13
2022-08-17T21:26:30.568Z,16.27
2022-08-17T21:29:29.904Z,16.20
2022-08-17T21:32:03.291Z,16.13
2022-08-17T21:34:35.928Z,16.17
2022-08-17T21:37:26.548Z,15.45
2022-08-17T21:40:18.853Z,15.95
2022-08-17T21:43:32.543Z,17.17
2022-08-17T21:46:29.575Z,15.07
2022-08-17T21:49:13.428Z,15.20
2022-08-17T21:51:54.285Z,13.57
2022-08-17T21:54:30.973Z,14.45
2022-08-17T21:57:01.615Z,13.48
2022-08-17T21:59:36.779Z,14.57
2022-08-17T22:02:34.013Z,14.93
2022-08-17T22:05:07.938Z,14.48
2022-08-17T22:07:48.672Z,13.82
2022-08-17T22:10:37.073Z,14.88
2022-08-17T22:13:16.991Z,13.90
2022-08-17T22:16:29.400Z,14.15
2022-08-17T22:18:59.023Z,14.07
2022-08-17T22:21:29.507Z,16.27
2022-08-17T22:24:16.322Z,14.55
2022-08-17T22:27:03.168Z,15.30
2022-08-17T22:29:57.128Z,15.25
2022-08-17T22:32:42.213Z,15.27
2022-08-17T22:35:35.045Z,15.40
2022-08-17T22:38:21.089Z,15.52
2022-08-17T22:40:51.728Z,16.63
2022-08-17T22:43:28.717Z,15.55
2022-08-17T22:45:59.314Z,16.98
2022-08-17T22:48:29.778Z,16.65
2022-08-17T22:54:19.010Z,16.33
2022-08-17T22:57:14.621Z,16.65
2022-08-17T22:59:53.723Z,16.77
2022-08-17T23:02:35.681Z,15.98
2022-08-17T23:05:34.418Z,15.38
2022-08-17T23:08:04.453Z,16.33
2022-08-17T23:10:32.517Z,16.75
2022-08-17T23:13:04.260Z,14.68
2022-08-17T23:15:34.014Z,13.40
2022-08-17T23:18:04.919Z,14.27
2022-08-17T23:20:35.864Z,13.18
2022-08-17T23:23:15.080Z,14.25
2022-08-17T23:25:47.464Z,14.18
2022-08-17T23:28:15.377Z,13.00
2022-08-17T23:30:44.773Z,13.40
2022-08-17T23:33:25.703Z,12.43
2022-08-17T23:36:01.574Z,12.07
2022-08-17T23:38:32.958Z,12.50
2022-08-17T23:41:04.965Z,14.15
2022-08-17T23:43:33.495Z,11.93
2022-08-17T23:46:03.721Z,12.07
2022-08-17T23:48:36.684Z,11.40
2022-08-17T23:51:19.063Z,12.38
2022-08-17T23:53:51.485Z,11.20
2022-08-17T23:56:27.291Z,11.13
2022-08-17T23:58:56.056Z,14.10
